Time;durP1;ratioP1;P1;durP2;ratioP2;P2;SDS_P1;SDS_P2;PMS_P1;PMS_P2;Temp;Humidity;BMP_temperature;BMP_pressure;BME280_temperature;BME280_humidity;BME280_pressure;Samples;Min_cycle;Max_cycle;Signal;HPM_P1;HPM_P2
2021/10/23 00:01:09;;;;;;;;;;;;;;;21.04;53.37;102280.66;7293320;19;151494;-50
2021/10/23 00:03:35;;;;;;;;;;;;;;;21.03;53.36;102281.81;7285175;19;154057;-51
2021/10/23 00:06:02;;;;;;;;;;;;;;;21.02;53.53;102285.75;7287151;19;151915;-51
2021/10/23 00:08:29;;;;;;;;;;;;;;;21.00;53.45;102282.34;7285150;19;152382;-50
2021/10/23 00:10:56;;;;;;;;;;;;;;;21.00;53.33;102287.97;7284085;19;153319;-51
2021/10/23 00:13:23;;;;;;;;;;;;;;;20.96;53.54;102284.88;7285379;19;152484;-51
2021/10/23 00:15:50;;;;;;;;;;;;;;;20.95;53.49;102277.56;7283479;19;153193;-50
2021/10/23 00:18:17;;;;;;;;;;;;;;;20.94;53.81;102284.31;7284503;19;153848;-51
2021/10/23 00:20:44;;;;;;;;;;;;;;;20.92;53.78;102285.72;7285869;19;151704;-51
2021/10/23 00:23:12;;;;;;;;;;;;;;;20.89;53.81;102287.13;7291636;19;153200;-50
2021/10/23 00:25:39;;;;;;;;;;;;;;;20.94;54.10;102286.31;7282860;19;153540;-50
2021/10/23 00:28:05;;;;;;;;;;;;;;;20.94;54.32;102289.94;7287501;19;152606;-50
2021/10/23 00:30:32;;;;;;;;;;;;;;;20.90;54.01;102288.78;7283811;19;153282;-51
2021/10/23 00:33:01;;;;;;;;;;;;;;;20.86;54.05;102282.91;7283623;19;151908;-50
2021/10/23 00:35:30;;;;;;;;;;;;;;;20.83;54.38;102286.28;7285562;19;153092;-51
2021/10/23 00:37:57;;;;;;;;;;;;;;;20.80;54.19;102274.75;7282627;19;153473;-50
2021/10/23 00:40:24;;;;;;;;;;;;;;;20.77;54.48;102286.53;7286559;19;152081;-50
2021/10/23 00:42:52;;;;;;;;;;;;;;;20.73;54.54;102286.25;7283995;19;152507;-50
2021/10/23 00:45:20;;;;;;;;;;;;;;;20.72;54.68;102286.50;7282640;19;153998;-50
2021/10/23 00:47:49;;;;;;;;;;;;;;;20.67;55.06;102287.34;7283656;19;153399;-50
2021/10/23 00:50:16;;;;;;;;;;;;;;;20.64;54.93;102279.47;7285088;19;154498;-50
2021/10/23 00:52:42;;;;;;;;;;;;;;;20.64;55.15;102281.44;7284948;19;151938;-51
2021/10/23 00:55:09;;;;;;;;;;;;;;;20.60;55.02;102291.53;7284359;19;153514;-50
2021/10/23 00:57:38;;;;;;;;;;;;;;;20.56;55.22;102285.66;7285151;19;153273;-51
2021/10/23 01:00:06;;;;;;;;;;;;;;;20.57;55.22;102278.06;7281694;19;151869;-50
2021/10/23 01:02:33;;;;;;;;;;;;;;;20.56;55.06;102282.84;7284330;19;152580;-51
2021/10/23 01:05:00;;;;;;;;;;;;;;;20.54;55.30;102284.22;7284980;19;153247;-50
2021/10/23 01:07:27;;;;;;;;;;;;;;;20.53;55.56;102286.22;7293144;19;152321;-50
2021/10/23 01:09:54;;;;;;;;;;;;;;;20.50;55.52;102283.09;7284007;19;152746;-50
2021/10/23 01:12:21;;;;;;;;;;;;;;;20.49;55.73;102285.03;7283001;19;152791;-51
2021/10/23 01:14:48;;;;;;;;;;;;;;;20.48;55.62;102280.56;7282361;19;152582;-50
2021/10/23 01:17:19;;;;;;;;;;;;;;;20.47;55.23;102278.88;7280409;19;153761;-51
2021/10/23 01:19:50;;;;;;;;;;;;;;;20.44;55.44;102279.44;7283641;19;152404;-50
2021/10/23 01:22:24;;;;;;;;;;;;;;;20.43;55.83;102277.75;7283807;19;152722;-50
2021/10/23 01:24:51;;;;;;;;;;;;;;;20.43;55.37;102269.31;7277911;19;154077;-50
2021/10/23 01:27:17;;;;;;;;;;;;;;;20.38;55.66;102278.56;7272474;19;153873;-50
2021/10/23 01:29:44;;;;;;;;;;;;;;;20.38;55.30;102277.72;7289587;19;152590;-50
2021/10/23 01:32:11;;;;;;;;;;;;;;;20.36;55.50;102280.78;7285453;19;153030;-50
2021/10/23 01:34:38;;;;;;;;;;;;;;;20.36;55.61;102277.13;7282325;19;153377;-50
2021/10/23 01:37:05;;;;;;;;;;;;;;;20.33;55.67;102277.69;7276413;19;153735;-51
2021/10/23 01:39:33;;;;;;;;;;;;;;;20.34;55.36;102276.59;7282116;19;151675;-50
2021/10/23 01:42:00;;;;;;;;;;;;;;;20.31;55.89;102271.50;7284533;19;152916;-50
2021/10/23 01:44:29;;;;;;;;;;;;;;;20.27;55.69;102276.78;7279958;19;153879;-50
2021/10/23 01:46:56;;;;;;;;;;;;;;;20.25;55.84;102284.66;7279769;19;152155;-51
2021/10/23 01:49:22;;;;;;;;;;;;;;;20.25;55.77;102281.84;7280896;19;152910;-51
2021/10/23 01:51:49;;;;;;;;;;;;;;;20.23;56.02;102289.69;7288241;19;154588;-50
2021/10/23 01:54:18;;;;;;;;;;;;;;;20.23;56.00;102289.69;7282126;19;152080;-50
2021/10/23 01:56:45;;;;;;;;;;;;;;;20.21;56.13;102291.09;7280234;19;153509;-50
2021/10/23 01:59:12;;;;;;;;;;;;;;;20.17;56.16;102293.56;7281596;19;151694;-50
2021/10/23 02:01:39;;;;;;;;;;;;;;;20.17;56.17;102289.97;7272452;19;152779;-50
2021/10/23 02:04:06;;;;;;;;;;;;;;;20.15;55.95;102292.19;7277597;19;153190;-50
2021/10/23 02:06:32;;;;;;;;;;;;;;;20.16;56.08;102291.06;7283337;19;152240;-50
2021/10/23 02:09:00;;;;;;;;;;;;;;;20.15;56.29;102287.41;7263473;19;153715;-50
2021/10/23 02:11:27;;;;;;;;;;;;;;;20.13;56.32;102294.41;7286476;19;154055;-50
2021/10/23 02:13:54;;;;;;;;;;;;;;;20.11;56.10;102291.88;7281154;19;152747;-51
2021/10/23 02:16:20;;;;;;;;;;;;;;;20.08;56.10;102288.78;7281539;19;153735;-51
2021/10/23 02:18:47;;;;;;;;;;;;;;;20.07;56.16;102292.72;7282989;19;151952;-51
2021/10/23 02:21:14;;;;;;;;;;;;;;;20.06;56.57;102289.06;7282971;19;151829;-50
2021/10/23 02:23:41;;;;;;;;;;;;;;;20.06;56.41;102288.19;7286016;19;153373;-50
2021/10/23 02:26:07;;;;;;;;;;;;;;;20.02;56.69;102275.84;7280076;19;151984;-50
2021/10/23 02:28:34;;;;;;;;;;;;;;;20.02;56.59;102281.44;7280540;19;153898;-50
2021/10/23 02:31:01;;;;;;;;;;;;;;;20.01;56.55;102290.97;7276595;19;153523;-51
2021/10/23 02:33:28;;;;;;;;;;;;;;;20.00;56.30;102290.13;7291526;19;152291;-50
2021/10/23 02:36:05;;;;;;;;;;;;;;;19.98;56.22;102289.56;7280965;19;154120;-50
2021/10/23 02:38:43;;;;;;;;;;;;;;;19.97;56.60;102290.69;7285942;19;153265;-50
2021/10/23 02:41:09;;;;;;;;;;;;;;;19.94;56.47;102283.63;7290394;19;153221;-50
2021/10/23 02:43:36;;;;;;;;;;;;;;;19.93;56.41;102276.38;7289299;19;154069;-50
2021/10/23 02:46:03;;;;;;;;;;;;;;;19.92;56.69;102266.25;7287276;19;153079;-50
2021/10/23 02:48:29;;;;;;;;;;;;;;;19.90;56.78;102270.44;7288291;19;152233;-51
2021/10/23 02:50:57;;;;;;;;;;;;;;;19.89;56.72;102268.78;7286478;19;156226;-50
2021/10/23 02:53:23;;;;;;;;;;;;;;;19.88;56.73;102267.91;7287733;19;152359;-51
2021/10/23 02:55:50;;;;;;;;;;;;;;;19.87;56.73;102271.84;7295953;19;153327;-51
2021/10/23 02:58:17;;;;;;;;;;;;;;;19.86;56.47;102272.09;7285553;19;152260;-51
2021/10/23 03:00:46;;;;;;;;;;;;;;;19.84;56.87;102272.38;7285816;19;152699;-50
2021/10/23 03:03:16;;;;;;;;;;;;;;;19.86;56.63;102269.28;7284998;19;152976;-50
2021/10/23 03:05:46;;;;;;;;;;;;;;;19.87;56.71;102269.03;7287716;19;151844;-50
2021/10/23 03:08:14;;;;;;;;;;;;;;;19.85;57.17;102268.44;7288589;19;153516;-50
2021/10/23 03:10:43;;;;;;;;;;;;;;;19.85;56.88;102262.84;7285970;19;153848;-50
2021/10/23 03:13:13;;;;;;;;;;;;;;;19.84;57.08;102266.78;7288126;19;151961;-50
2021/10/23 03:15:41;;;;;;;;;;;;;;;19.83;56.92;102261.44;7288181;19;152839;-50
2021/10/23 03:18:12;;;;;;;;;;;;;;;19.83;57.05;102273.50;7291144;19;152839;-50
2021/10/23 03:20:43;;;;;;;;;;;;;;;19.81;56.98;102272.91;7284214;19;153037;-50
2021/10/23 03:23:16;;;;;;;;;;;;;;;19.81;57.00;102269.25;7284465;19;154480;-50
2021/10/23 03:25:49;;;;;;;;;;;;;;;19.81;57.24;102272.06;7285864;19;152215;-50
2021/10/23 03:28:22;;;;;;;;;;;;;;;19.79;57.33;102275.16;7279638;19;152840;-50
2021/10/23 03:30:58;;;;;;;;;;;;;;;19.79;57.08;102282.72;7286190;19;153695;-50
2021/10/23 03:33:32;;;;;;;;;;;;;;;19.76;57.45;102289.69;7286369;19;152086;-50
2021/10/23 03:36:05;;;;;;;;;;;;;;;19.76;57.28;102274.88;7285398;19;153055;-50
2021/10/23 03:38:36;;;;;;;;;;;;;;;19.76;57.22;102278.47;7285666;19;153368;-50
2021/10/23 03:41:06;;;;;;;;;;;;;;;19.76;57.23;102289.69;7296248;19;151888;-50
2021/10/23 03:43:42;;;;;;;;;;;;;;;19.72;57.39;102282.94;7282685;19;154076;-50
2021/10/23 03:46:14;;;;;;;;;;;;;;;19.71;57.78;102281.28;7288076;19;151736;-51
2021/10/23 03:48:45;;;;;;;;;;;;;;;19.70;57.93;102287.16;7285905;19;151728;-51
2021/10/23 03:51:14;;;;;;;;;;;;;;;19.68;58.06;102286.56;7285027;19;152829;-50
2021/10/23 03:53:43;;;;;;;;;;;;;;;19.68;57.83;102279.00;7286240;19;152102;-50
2021/10/23 03:56:10;;;;;;;;;;;;;;;19.66;57.86;102277.59;7287693;19;153466;-50
2021/10/23 03:58:36;;;;;;;;;;;;;;;19.67;57.83;102276.47;7284355;19;153302;-50
2021/10/23 04:01:05;;;;;;;;;;;;;;;19.65;57.91;102275.91;7287417;19;151520;-50
2021/10/23 04:03:36;;;;;;;;;;;;;;;19.64;58.08;102279.81;7294053;19;152725;-50
2021/10/23 04:06:06;;;;;;;;;;;;;;;19.63;57.94;102278.97;7286835;19;152328;-51
2021/10/23 04:08:36;;;;;;;;;;;;;;;19.62;58.27;102284.84;7287268;19;152120;-50
2021/10/23 04:11:03;;;;;;;;;;;;;;;19.60;58.07;102273.06;7285363;19;152739;-50
2021/10/23 04:13:30;;;;;;;;;;;;;;;19.60;58.15;102276.72;7287669;19;152000;-50
2021/10/23 04:15:57;;;;;;;;;;;;;;;19.58;58.63;102278.91;7287806;19;153601;-50
2021/10/23 04:18:23;;;;;;;;;;;;;;;19.58;58.63;102281.72;7284051;19;153740;-50
2021/10/23 04:20:51;;;;;;;;;;;;;;;19.58;58.67;102278.09;7286903;19;151867;-50
2021/10/23 04:23:23;;;;;;;;;;;;;;;19.55;58.79;102273.88;7291405;19;153302;-50
2021/10/23 04:25:53;;;;;;;;;;;;;;;19.55;58.62;102273.88;7287092;19;151607;-51
2021/10/23 04:28:19;;;;;;;;;;;;;;;19.52;58.85;102272.47;7284551;19;151747;-50
2021/10/23 04:30:46;;;;;;;;;;;;;;;19.54;58.70;102277.78;7283408;19;153451;-50
2021/10/23 04:33:12;;;;;;;;;;;;;;;19.50;58.94;102269.06;7287900;19;151995;-51
2021/10/23 04:35:39;;;;;;;;;;;;;;;19.51;58.65;102275.53;7286726;19;152732;-50
2021/10/23 04:38:06;;;;;;;;;;;;;;;19.51;58.86;102275.53;7284439;19;154147;-50
2021/10/23 04:40:32;;;;;;;;;;;;;;;19.51;58.61;102278.31;7285462;19;151873;-49
2021/10/23 04:42:59;;;;;;;;;;;;;;;19.50;58.78;102279.44;7286860;19;152368;-50
2021/10/23 04:45:26;;;;;;;;;;;;;;;19.50;59.07;102271.03;7290941;19;154226;-50
2021/10/23 04:47:52;;;;;;;;;;;;;;;19.49;59.29;102269.31;7285655;19;152832;-50
2021/10/23 04:50:19;;;;;;;;;;;;;;;19.48;59.08;102278.88;7285211;19;154127;-49
2021/10/23 04:52:45;;;;;;;;;;;;;;;19.47;59.17;102275.22;7285561;19;151778;-50
2021/10/23 04:55:12;;;;;;;;;;;;;;;19.47;58.86;102277.19;7287316;19;152672;-50
2021/10/23 04:57:39;;;;;;;;;;;;;;;19.45;58.99;102274.63;7283044;19;153538;-49
2021/10/23 05:00:06;;;;;;;;;;;;;;;19.45;58.94;102274.63;7281794;19;152449;-51
2021/10/23 05:02:33;;;;;;;;;;;;;;;19.45;59.31;102279.38;7284969;19;153785;-50
2021/10/23 05:04:59;;;;;;;;;;;;;;;19.44;58.94;102275.75;7284593;19;153435;-50
2021/10/23 05:07:26;;;;;;;;;;;;;;;19.43;59.20;102284.41;7294817;19;151790;-50
2021/10/23 05:09:53;;;;;;;;;;;;;;;19.44;59.51;102280.53;7283605;19;154019;-50
2021/10/23 05:12:19;;;;;;;;;;;;;;;19.43;59.20;102273.19;7286709;19;152062;-50
2021/10/23 05:14:46;;;;;;;;;;;;;;;19.41;59.30;102281.00;7284142;19;151741;-50
2021/10/23 05:17:13;;;;;;;;;;;;;;;19.42;59.61;102282.69;7283852;19;152715;-49
2021/10/23 05:19:39;;;;;;;;;;;;;;;19.40;59.72;102271.75;7285329;19;151790;-51
2021/10/23 05:22:06;;;;;;;;;;;;;;;19.41;59.68;102281.00;7284932;19;152962;-50
2021/10/23 05:24:34;;;;;;;;;;;;;;;19.39;59.64;102275.69;7285414;19;153554;-50
2021/10/23 05:27:00;;;;;;;;;;;;;;;19.39;59.76;102289.72;7284280;19;152070;-50
2021/10/23 05:29:27;;;;;;;;;;;;;;;19.39;59.78;102288.84;7287825;19;152644;-50
2021/10/23 05:31:53;;;;;;;;;;;;;;;19.38;59.98;102288.00;7279852;19;151884;-50
2021/10/23 05:34:20;;;;;;;;;;;;;;;19.37;60.24;102293.88;7285049;19;153144;-50
2021/10/23 05:36:46;;;;;;;;;;;;;;;19.38;60.07;102289.97;7282907;19;153460;-50
2021/10/23 05:39:13;;;;;;;;;;;;;;;19.34;60.13;102292.47;7283240;19;152288;-50
2021/10/23 05:41:40;;;;;;;;;;;;;;;19.35;60.03;102290.50;7281528;19;152060;-50
2021/10/23 05:44:06;;;;;;;;;;;;;;;19.35;60.16;102293.31;7285795;19;153741;-50
2021/10/23 05:46:33;;;;;;;;;;;;;;;19.36;59.97;102300.59;7283691;19;152489;-50
2021/10/23 05:49:00;;;;;;;;;;;;;;;19.35;60.14;102307.31;7285239;19;153370;-50
2021/10/23 05:51:26;;;;;;;;;;;;;;;19.34;60.36;102300.03;7291189;19;153994;-49
2021/10/23 05:53:53;;;;;;;;;;;;;;;19.33;59.96;102307.59;7285523;19;153430;-50
2021/10/23 05:56:21;;;;;;;;;;;;;;;19.34;59.96;102294.41;7282957;19;153519;-50
2021/10/23 05:58:47;;;;;;;;;;;;;;;19.32;60.09;102302.22;7288252;19;151620;-50
2021/10/23 06:01:14;;;;;;;;;;;;;;;19.31;60.05;102306.13;7289844;19;152904;-50
2021/10/23 06:03:41;;;;;;;;;;;;;;;19.32;60.24;102302.22;7290772;19;154034;-49
2021/10/23 06:06:09;;;;;;;;;;;;;;;19.31;60.11;102297.72;7291250;19;152262;-50
2021/10/23 06:08:36;;;;;;;;;;;;;;;19.29;60.56;102300.81;7291110;19;152827;-51
2021/10/23 06:11:05;;;;;;;;;;;;;;;19.29;60.44;102299.97;7289763;19;153947;-50
2021/10/23 06:13:32;;;;;;;;;;;;;;;19.29;60.61;102302.78;7298367;19;152068;-49
2021/10/23 06:15:59;;;;;;;;;;;;;;;19.29;60.69;102305.59;7290356;19;153819;-49
2021/10/23 06:18:26;;;;;;;;;;;;;;;19.26;60.32;102295.72;7290128;19;151884;-49
2021/10/23 06:20:52;;;;;;;;;;;;;;;19.27;60.39;102305.00;7290853;19;153131;-49
2021/10/23 06:23:19;;;;;;;;;;;;;;;19.26;60.55;102317.34;7290165;19;153928;-49
2021/10/23 06:25:45;;;;;;;;;;;;;;;19.26;60.38;102314.53;7290483;19;151986;-49
2021/10/23 06:28:12;;;;;;;;;;;;;;;19.26;60.61;102315.34;7292223;19;153201;-49
2021/10/23 06:30:39;;;;;;;;;;;;;;;19.24;60.54;102306.38;7286971;19;154189;-50
2021/10/23 06:33:05;;;;;;;;;;;;;;;19.24;60.72;102314.78;7296398;19;152238;-49
2021/10/23 06:35:32;;;;;;;;;;;;;;;19.24;60.44;102325.16;7288701;19;153502;-50
2021/10/23 06:37:59;;;;;;;;;;;;;;;19.24;60.51;102313.94;7289288;19;151816;-49
2021/10/23 06:40:25;;;;;;;;;;;;;;;19.23;60.74;102315.88;7290238;19;152819;-51
2021/10/23 06:42:52;;;;;;;;;;;;;;;19.29;61.15;102312.03;7289228;19;153260;-50
2021/10/23 06:45:19;;;;;;;;;;;;;;;19.35;61.09;102324.13;7290380;19;152382;-50
2021/10/23 06:47:45;;;;;;;;;;;;;;;19.44;61.49;102325.38;7288972;19;152780;-50
2021/10/23 06:50:13;;;;;;;;;;;;;;;19.49;61.30;102320.63;7287251;19;154496;-50
2021/10/23 06:52:40;;;;;;;;;;;;;;;19.53;61.51;102330.19;7289103;19;151911;-50
2021/10/23 06:55:08;;;;;;;;;;;;;;;19.59;61.94;102319.03;7294406;19;153400;-49
2021/10/23 06:57:34;;;;;;;;;;;;;;;19.66;62.62;102325.25;7290268;19;151472;-50
2021/10/23 07:00:01;;;;;;;;;;;;;;;19.74;62.59;102324.75;7285813;19;152713;-50
2021/10/23 07:02:28;;;;;;;;;;;;;;;19.82;62.37;102325.09;7287602;19;153392;-50
2021/10/23 07:04:55;;;;;;;;;;;;;;;19.90;62.53;102329.34;7289709;19;151993;-49
2021/10/23 07:07:22;;;;;;;;;;;;;;;19.98;62.38;102335.31;7290207;19;152793;-49
2021/10/23 07:09:49;;;;;;;;;;;;;;;20.07;61.95;102337.59;7288311;19;153333;-50
2021/10/23 07:12:16;;;;;;;;;;;;;;;20.13;62.26;102339.28;7288928;19;151595;-50
2021/10/23 07:14:50;;;;;;;;;;;;;;;20.18;62.10;102334.56;7289470;19;153391;-50
2021/10/23 07:17:31;;;;;;;;;;;;;;;20.24;61.82;102336.28;7290436;19;152686;-51
2021/10/23 07:19:58;;;;;;;;;;;;;;;20.31;61.21;102347.28;7289940;19;153131;-50
2021/10/23 07:22:25;;;;;;;;;;;;;;;20.35;61.11;102342.84;7287494;19;153296;-49
2021/10/23 07:24:52;;;;;;;;;;;;;;;20.39;60.89;102342.03;7289967;19;151803;-50
2021/10/23 07:27:19;;;;;;;;;;;;;;;20.44;60.63;102340.34;7287468;19;152178;-50
2021/10/23 07:29:47;;;;;;;;;;;;;;;20.47;60.62;102343.44;7284988;19;152621;-50
2021/10/23 07:32:18;;;;;;;;;;;;;;;20.50;60.30;102345.69;7284946;19;152100;-49
2021/10/23 07:34:44;;;;;;;;;;;;;;;20.53;60.32;102347.13;7286351;19;152025;-50
2021/10/23 07:37:11;;;;;;;;;;;;;;;20.54;59.86;102349.66;7288249;19;152446;-50
2021/10/23 07:39:38;;;;;;;;;;;;;;;20.58;59.92;102347.97;7294788;19;151821;-49
2021/10/23 07:42:04;;;;;;;;;;;;;;;20.60;60.41;102347.72;7284448;19;153485;-50
2021/10/23 07:44:35;;;;;;;;;;;;;;;20.63;59.94;102347.16;7287665;19;151982;-50
2021/10/23 07:47:02;;;;;;;;;;;;;;;20.63;60.22;102358.38;7286588;19;153938;-50
2021/10/23 07:49:29;;;;;;;;;;;;;;;20.64;59.89;102352.50;7287655;19;152695;-51
2021/10/23 07:51:55;;;;;;;;;;;;;;;20.65;59.93;102350.53;7287657;19;152032;-50
2021/10/23 07:54:22;;;;;;;;;;;;;;;20.66;59.99;102355.88;7287033;19;153529;-50
2021/10/23 07:56:49;;;;;;;;;;;;;;;20.65;59.46;102351.38;7287525;19;153810;-49
2021/10/23 07:59:16;;;;;;;;;;;;;;;20.67;59.70;102354.75;7286893;19;152317;-50
2021/10/23 08:01:42;;;;;;;;;;;;;;;20.70;59.94;102361.78;7294770;19;153897;-50
2021/10/23 08:04:09;;;;;;;;;;;;;;;20.70;59.57;102364.59;7287633;19;152139;-49
2021/10/23 08:06:36;;;;;;;;;;;;;;;20.69;59.69;102360.94;7286902;19;152736;-49
2021/10/23 08:09:11;;;;;;;;;;;;;;;20.72;59.61;102367.97;7286918;19;153764;-49
2021/10/23 08:11:41;;;;;;;;;;;;;;;20.72;59.47;102367.97;7286057;19;151783;-50
2021/10/23 08:14:08;;;;;;;;;;;;;;;20.70;59.47;102368.25;7285836;19;153929;-50
2021/10/23 08:16:35;;;;;;;;;;;;;;;20.71;59.05;102367.16;7284840;19;152520;-50
2021/10/23 08:19:02;;;;;;;;;;;;;;;20.72;59.21;102370.78;7286842;19;152264;-49
2021/10/23 08:21:30;;;;;;;;;;;;;;;20.71;59.28;102367.16;7286045;19;151516;-49
2021/10/23 08:23:58;;;;;;;;;;;;;;;20.70;59.08;102373.88;7291816;19;152055;-50
2021/10/23 08:26:25;;;;;;;;;;;;;;;20.72;59.02;102373.59;7287651;19;154074;-50
2021/10/23 08:28:52;;;;;;;;;;;;;;;20.72;59.29;102368.81;7283987;19;154317;-50
2021/10/23 08:31:19;;;;;;;;;;;;;;;20.74;60.09;102379.78;7287834;19;151832;-50
2021/10/23 08:33:46;;;;;;;;;;;;;;;20.57;52.22;102380.00;7288441;19;153592;-50
2021/10/23 08:36:13;;;;;;;;;;;;;;;20.43;51.96;102373.19;7286267;19;153366;-50
2021/10/23 08:38:41;;;;;;;;;;;;;;;20.53;54.63;102376.06;7286931;19;152076;-50
2021/10/23 08:41:10;;;;;;;;;;;;;;;20.52;54.98;102382.78;7285821;19;153257;-50
2021/10/23 08:43:37;;;;;;;;;;;;;;;20.55;55.21;102373.81;7290271;19;152810;-50
2021/10/23 08:46:05;;;;;;;;;;;;;;;20.56;55.30;102372.69;7283412;19;155083;-50
2021/10/23 08:48:33;;;;;;;;;;;;;;;20.57;54.92;102379.16;7285363;19;153337;-50
2021/10/23 08:51:00;;;;;;;;;;;;;;;20.58;55.06;102384.47;7287868;19;151909;-50
2021/10/23 08:53:39;;;;;;;;;;;;;;;20.57;54.74;102385.63;7286042;19;152864;-50
2021/10/23 08:56:07;;;;;;;;;;;;;;;20.57;55.11;102396.00;7284097;19;154009;-50
2021/10/23 08:58:34;;;;;;;;;;;;;;;20.55;54.83;102396.25;7284539;19;152209;-50
2021/10/23 09:01:02;;;;;;;;;;;;;;;20.54;54.84;102394.56;7284706;19;153642;-51
2021/10/23 09:03:30;;;;;;;;;;;;;;;20.53;54.66;102398.53;7284483;19;153263;-50
2021/10/23 09:05:57;;;;;;;;;;;;;;;20.52;54.61;102396.81;7292561;19;152399;-50
2021/10/23 09:08:26;;;;;;;;;;;;;;;20.51;54.55;102395.13;7285531;19;153243;-51
2021/10/23 09:11:04;;;;;;;;;;;;;;;20.50;54.85;102399.03;7286910;19;151916;-51
2021/10/23 09:13:33;;;;;;;;;;;;;;;20.48;54.83;102398.50;7285604;19;153438;-51
2021/10/23 09:16:14;;;;;;;;;;;;;;;20.47;54.58;102408.03;7283417;19;153540;-50
2021/10/23 09:18:43;;;;;;;;;;;;;;;20.49;54.50;102402.16;7283782;19;151951;-51
2021/10/23 09:21:20;;;;;;;;;;;;;;;20.46;54.73;102397.91;7285192;19;153729;-50
2021/10/23 09:23:47;;;;;;;;;;;;;;;20.44;54.47;102405.78;7285242;19;152532;-50
2021/10/23 09:26:24;;;;;;;;;;;;;;;20.38;54.48;102402.09;7287062;19;152283;-50
2021/10/23 09:28:54;;;;;;;;;;;;;;;20.39;54.51;102402.94;7293635;19;153025;-50
2021/10/23 09:31:28;;;;;;;;;;;;;;;20.34;54.29;102403.75;7284291;19;151701;-50
2021/10/23 09:33:59;;;;;;;;;;;;;;;20.33;54.26;102404.00;7284228;19;152957;-50
2021/10/23 09:36:25;;;;;;;;;;;;;;;20.32;54.81;102399.50;7283436;19;153948;-50
2021/10/23 09:38:57;;;;;;;;;;;;;;;20.31;54.76;102407.06;7285438;19;151675;-50
2021/10/23 09:41:26;;;;;;;;;;;;;;;20.26;54.36;102392.97;7283234;19;152302;-50
2021/10/23 09:44:02;;;;;;;;;;;;;;;20.24;54.70;102395.22;7285142;19;153956;-50
2021/10/23 09:46:29;;;;;;;;;;;;;;;20.25;54.62;102399.72;7283506;19;151982;-51
2021/10/23 09:48:57;;;;;;;;;;;;;;;20.25;54.68;102399.72;7285441;19;153511;-50
2021/10/23 09:51:27;;;;;;;;;;;;;;;20.22;54.56;102399.41;7291198;19;152362;-51
2021/10/23 09:53:56;;;;;;;;;;;;;;;20.17;54.98;102400.22;7283509;19;152899;-51
2021/10/23 09:56:23;;;;;;;;;;;;;;;20.20;54.80;102394.09;7282424;19;155016;-51
2021/10/23 09:58:51;;;;;;;;;;;;;;;20.18;54.71;102387.88;7283407;19;151886;-51
2021/10/23 10:01:18;;;;;;;;;;;;;;;20.18;54.87;102392.66;7283289;19;151733;-51
2021/10/23 10:03:45;;;;;;;;;;;;;;;20.16;55.02;102383.66;7282804;19;153752;-51
2021/10/23 10:06:12;;;;;;;;;;;;;;;20.13;54.88;102379.44;7282591;19;152256;-51
2021/10/23 10:08:40;;;;;;;;;;;;;;;20.13;54.95;102389.81;7283327;19;151843;-51
2021/10/23 10:11:12;;;;;;;;;;;;;;;20.14;54.77;102391.50;7283980;19;153052;-50
2021/10/23 10:13:41;;;;;;;;;;;;;;;20.11;55.28;102387.28;7290657;19;151479;-50
2021/10/23 10:16:09;;;;;;;;;;;;;;;20.10;55.14;102384.75;7282165;19;152641;-51
2021/10/23 10:18:36;;;;;;;;;;;;;;;20.08;55.30;102382.19;7285268;19;151429;-51
2021/10/23 10:21:07;;;;;;;;;;;;;;;20.06;55.23;102378.84;7284544;19;153478;-51
2021/10/23 10:23:38;;;;;;;;;;;;;;;20.10;55.30;102385.59;7281199;19;153670;-51
2021/10/23 10:26:25;;;;;;;;;;;;;;;20.13;55.26;102385.03;7284330;19;152150;-51
2021/10/23 10:29:03;;;;;;;;;;;;;;;20.09;55.28;102386.69;7285125;19;151961;-50
2021/10/23 10:31:53;;;;;;;;;;;;;;;20.17;55.32;102388.19;7283477;19;153652;-51
2021/10/23 10:34:31;;;;;;;;;;;;;;;20.20;55.25;102376.41;7275499;19;152367;-51
2021/10/23 10:37:12;;;;;;;;;;;;;;;20.25;55.36;102382.03;7277962;19;152467;-50
2021/10/23 10:39:41;;;;;;;;;;;;;;;20.29;54.98;102383.19;7280137;19;151748;-51
2021/10/23 10:45:14;;;;;;;;;;;;;;;20.36;55.28;102390.28;7286539;19;153219;-51
2021/10/23 10:47:58;;;;;;;;;;;;;;;20.41;55.49;102376.25;7287830;19;151884;-51
2021/10/23 10:50:33;;;;;;;;;;;;;;;20.50;55.28;102378.53;7289251;19;153314;-51
2021/10/23 10:53:11;;;;;;;;;;;;;;;20.57;55.05;102377.19;7286552;19;153358;-51
2021/10/23 10:55:40;;;;;;;;;;;;;;;20.63;55.16;102372.41;7286989;19;151992;-50
2021/10/23 10:58:09;;;;;;;;;;;;;;;20.67;55.14;102374.41;7294683;19;152896;-51
2021/10/23 11:00:46;;;;;;;;;;;;;;;20.72;54.70;102377.25;7286643;19;152976;-51
2021/10/23 11:03:22;;;;;;;;;;;;;;;20.76;54.63;102369.09;7289721;19;154890;-51
2021/10/23 11:05:49;;;;;;;;;;;;;;;20.79;54.17;102375.03;7287794;19;153302;-51
2021/10/23 11:08:16;;;;;;;;;;;;;;;20.84;53.92;102374.22;7289458;19;152595;-51
2021/10/23 11:10:53;;;;;;;;;;;;;;;20.86;53.91;102377.56;7288299;19;153066;-50
2021/10/23 11:13:23;;;;;;;;;;;;;;;20.88;53.36;102377.31;7288799;19;153911;-52
2021/10/23 11:15:50;;;;;;;;;;;;;;;20.90;53.26;102373.09;7288241;19;152290;-50
2021/10/23 11:18:17;;;;;;;;;;;;;;;20.92;53.45;102375.63;7289279;19;152811;-51
2021/10/23 11:20:45;;;;;;;;;;;;;;;20.92;53.06;102370.00;7293258;19;153673;-51
2021/10/23 11:23:18;;;;;;;;;;;;;;;20.95;52.82;102369.44;7286593;19;152809;-51
2021/10/23 11:25:46;;;;;;;;;;;;;;;20.96;52.73;102359.91;7287144;19;153987;-50
2021/10/23 11:28:13;;;;;;;;;;;;;;;20.97;53.09;102361.59;7287594;19;151666;-51
2021/10/23 11:30:42;;;;;;;;;;;;;;;20.97;52.86;102358.78;7288148;19;153307;-51
2021/10/23 11:33:12;;;;;;;;;;;;;;;20.97;52.53;102355.97;7284703;19;154720;-50
2021/10/23 11:35:44;;;;;;;;;;;;;;;20.96;52.37;102351.47;7285379;19;152077;-51
2021/10/23 11:38:21;;;;;;;;;;;;;;;20.97;52.12;102351.22;7282147;19;152459;-51
2021/10/23 11:40:52;;;;;;;;;;;;;;;20.98;51.98;102346.44;7284508;19;153649;-51
2021/10/23 11:43:19;;;;;;;;;;;;;;;20.98;51.77;102344.47;7294023;19;151802;-51
2021/10/23 11:45:46;;;;;;;;;;;;;;;20.97;51.83;102351.22;7285922;19;153859;-51
2021/10/23 11:48:15;;;;;;;;;;;;;;;20.99;52.12;102350.91;7287990;19;151976;-51
2021/10/23 11:50:43;;;;;;;;;;;;;;;20.98;51.53;102346.44;7286109;19;153682;-51
2021/10/23 11:53:10;;;;;;;;;;;;;;;21.00;51.90;102349.78;7284405;19;153443;-51
2021/10/23 11:55:39;;;;;;;;;;;;;;;20.99;51.57;102342.47;7285510;19;151920;-50
2021/10/23 11:58:07;;;;;;;;;;;;;;;21.00;51.21;102342.22;7281624;19;154082;-51
2021/10/23 12:00:36;;;;;;;;;;;;;;;20.99;51.20;102337.72;7283144;19;153164;-50
2021/10/23 12:03:05;;;;;;;;;;;;;;;20.98;51.28;102323.94;7287877;19;152072;-50
2021/10/23 12:05:40;;;;;;;;;;;;;;;21.00;51.37;102330.97;7291115;19;153972;-51
2021/10/23 12:08:10;;;;;;;;;;;;;;;21.00;50.87;102316.06;7286533;19;151832;-50
2021/10/23 12:10:47;;;;;;;;;;;;;;;20.98;50.81;102319.19;7285230;19;153344;-50
2021/10/23 12:13:14;;;;;;;;;;;;;;;20.97;50.93;102314.69;7285727;19;152584;-51
2021/10/23 12:15:40;;;;;;;;;;;;;;;20.96;50.93;102310.16;7285410;19;152021;-51
2021/10/23 12:18:08;;;;;;;;;;;;;;;20.95;51.29;102307.63;7287324;19;152903;-51
2021/10/23 12:20:35;;;;;;;;;;;;;;;20.95;51.24;102307.63;7283468;19;152951;-50
2021/10/23 12:23:03;;;;;;;;;;;;;;;20.94;51.02;102294.72;7284972;19;152018;-51
2021/10/23 12:25:30;;;;;;;;;;;;;;;20.91;50.93;102296.13;7284872;19;152833;-50
2021/10/23 12:27:58;;;;;;;;;;;;;;;20.90;51.24;102297.22;7291718;19;154221;-50
2021/10/23 12:30:26;;;;;;;;;;;;;;;20.88;51.26;102291.06;7284288;19;153141;-51
2021/10/23 12:32:59;;;;;;;;;;;;;;;20.89;51.07;102289.09;7285171;19;154372;-51
2021/10/23 12:35:26;;;;;;;;;;;;;;;20.86;51.74;102288.53;7284791;19;151694;-50
2021/10/23 12:37:58;;;;;;;;;;;;;;;20.52;44.89;102287.31;7284210;19;151866;-50